createdAt,value
2019-04-06T00:00:08.817Z,60.83
2019-04-06T00:02:40.009Z,60.39
2019-04-06T00:05:09.472Z,60.22
2019-04-06T00:07:38.886Z,59.72
2019-04-06T00:10:08.448Z,60.02
2019-04-06T00:12:38.063Z,59.63
2019-04-06T00:15:07.682Z,59.74
2019-04-06T00:17:37.202Z,59.93
2019-04-06T00:20:07.238Z,59.56
2019-04-06T00:22:36.873Z,59.81
2019-04-06T00:25:07.278Z,59.89
2019-04-06T00:27:36.707Z,60.31
2019-04-06T00:30:07.842Z,60.63
2019-04-06T00:32:41.908Z,60.42
2019-04-06T00:35:11.319Z,60.18
2019-04-06T00:37:40.738Z,60.57
2019-04-06T00:40:10.193Z,60.63
2019-04-06T00:42:39.615Z,60.57
2019-04-06T00:45:09.063Z,60.65
2019-04-06T00:47:38.489Z,60.02
2019-04-06T00:50:08.087Z,60.38
2019-04-06T00:52:37.519Z,60.49
2019-04-06T00:55:07.238Z,60.69
2019-04-06T00:57:36.659Z,60.54
2019-04-06T01:00:07.321Z,60.48
2019-04-06T01:02:36.704Z,60.44
2019-04-06T01:05:06.528Z,60.94
2019-04-06T01:07:36.281Z,61.16
2019-04-06T01:10:07.295Z,61.17
2019-04-06T01:12:36.883Z,61.38
2019-04-06T01:15:06.435Z,60.93
2019-04-06T01:17:36.178Z,61.32
2019-04-06T01:20:05.999Z,61.77
2019-04-06T01:22:35.427Z,61.25
2019-04-06T01:25:09.307Z,61.51
2019-04-06T01:27:39.215Z,61.27
2019-04-06T01:30:08.692Z,61.54
2019-04-06T01:32:38.161Z,61.30
2019-04-06T01:35:08.043Z,61.72
2019-04-06T01:37:37.466Z,61.73
2019-04-06T01:40:07.285Z,61.40
2019-04-06T01:42:36.707Z,61.34
2019-04-06T01:45:06.531Z,61.88
2019-04-06T01:47:36.178Z,61.81
2019-04-06T01:50:05.798Z,61.56
2019-04-06T01:52:35.222Z,61.65
2019-04-06T01:55:05.533Z,61.93
2019-04-06T01:57:34.959Z,62.39
2019-04-06T02:00:10.650Z,62.16
2019-04-06T02:02:44.130Z,62.09
2019-04-06T02:05:13.569Z,62.18
2019-04-06T02:07:42.996Z,62.23
2019-04-06T02:10:12.443Z,62.31
2019-04-06T02:12:41.973Z,62.05
2019-04-06T02:15:11.482Z,62.37
2019-04-06T02:17:40.930Z,62.52
2019-04-06T02:20:10.658Z,63.21
2019-04-06T02:22:40.215Z,62.97
2019-04-06T02:25:10.913Z,63.26
2019-04-06T02:27:40.366Z,63.75
2019-04-06T02:30:11.831Z,64.05
2019-04-06T02:33:00.770Z,63.72
2019-04-06T02:35:32.090Z,64.84
2019-04-06T02:38:05.936Z,64.31
2019-04-06T02:40:37.284Z,64.56
2019-04-06T02:43:08.373Z,65.02
2019-04-06T02:45:38.127Z,65.26
2019-04-06T02:48:07.622Z,65.05
2019-04-06T02:50:37.121Z,65.26
2019-04-06T02:53:07.229Z,65.27
2019-04-06T02:55:36.655Z,65.50
2019-04-06T02:58:06.223Z,66.20
2019-04-06T03:00:35.628Z,66.46
2019-04-06T03:03:05.565Z,66.25
2019-04-06T03:05:35.153Z,65.93
2019-04-06T03:08:04.821Z,66.33
2019-04-06T03:10:34.960Z,66.56
2019-04-06T03:13:04.514Z,65.76
2019-04-06T03:15:34.127Z,65.93
2019-04-06T03:18:04.262Z,65.07
2019-04-06T03:20:33.783Z,65.37
2019-04-06T03:23:03.337Z,65.61
2019-04-06T03:25:32.956Z,65.54
2019-04-06T03:28:02.514Z,65.52
2019-04-06T03:30:32.085Z,65.83
2019-04-06T03:33:01.557Z,66.36
2019-04-06T03:35:31.165Z,66.70
2019-04-06T03:38:00.604Z,66.37
2019-04-06T03:40:30.186Z,66.44
2019-04-06T03:42:59.658Z,66.11
2019-04-06T03:45:29.388Z,66.42
2019-04-06T03:47:59.257Z,66.48
2019-04-06T03:50:28.876Z,66.30
2019-04-06T03:52:58.425Z,66.41
2019-04-06T03:55:28.095Z,66.37
2019-04-06T03:57:57.602Z,66.20
2019-04-06T04:00:27.151Z,66.69
2019-04-06T04:02:56.699Z,66.80
2019-04-06T04:05:26.121Z,66.85
2019-04-06T04:07:55.574Z,66.65
2019-04-06T04:10:34.296Z,67.20
2019-04-06T04:13:04.397Z,67.22
2019-04-06T04:15:33.932Z,67.39
2019-04-06T04:18:03.803Z,67.56
2019-04-06T04:20:33.464Z,67.15
2019-04-06T04:23:03.116Z,67.25
2019-04-06T04:25:32.522Z,66.70
2019-04-06T04:28:02.523Z,66.86
2019-04-06T04:30:33.959Z,66.89
2019-04-06T04:33:03.218Z,66.79
2019-04-06T04:35:32.917Z,67.18
2019-04-06T04:38:02.580Z,67.12
2019-04-06T04:40:32.144Z,67.66
2019-04-06T04:43:01.616Z,67.18
2019-04-06T04:45:31.145Z,67.59
2019-04-06T04:48:00.710Z,67.03
2019-04-06T04:50:30.214Z,67.16
2019-04-06T04:52:59.748Z,66.59
2019-04-06T04:55:29.170Z,66.86
2019-04-06T04:57:58.702Z,66.83
2019-04-06T05:00:28.152Z,66.82
2019-04-06T05:02:57.598Z,66.59
2019-04-06T05:05:27.060Z,66.88
2019-04-06T05:07:56.478Z,66.23
2019-04-06T05:10:25.940Z,65.95
2019-04-06T05:12:55.357Z,65.58
2019-04-06T05:15:30.797Z,65.69
2019-04-06T05:18:00.211Z,64.95
2019-04-06T05:20:29.776Z,65.23
2019-04-06T05:22:59.190Z,64.60
2019-04-06T05:25:28.682Z,64.46
2019-04-06T05:27:58.056Z,63.99
2019-04-06T05:30:27.598Z,63.66
2019-04-06T05:32:57.099Z,63.71
2019-04-06T05:35:26.544Z,63.83
2019-04-06T05:37:55.964Z,63.14
2019-04-06T05:40:25.429Z,63.28
2019-04-06T05:42:54.942Z,62.87
2019-04-06T05:45:24.382Z,62.14
2019-04-06T05:47:53.796Z,61.88
2019-04-06T05:50:23.253Z,62.23
2019-04-06T05:52:52.780Z,61.72
2019-04-06T05:55:24.397Z,62.10
2019-04-06T05:58:03.141Z,62.06
2019-04-06T06:00:24.516Z,61.67
2019-04-06T06:02:54.016Z,61.41
2019-04-06T06:05:23.874Z,61.59
2019-04-06T06:07:53.428Z,61.11
2019-04-06T06:10:22.850Z,60.34
2019-04-06T06:12:52.270Z,60.69
2019-04-06T06:15:21.768Z,60.27
2019-04-06T06:17:51.161Z,60.35
2019-04-06T06:20:20.605Z,59.96
2019-04-06T06:22:50.131Z,58.96
2019-04-06T06:25:19.581Z,59.00
2019-04-06T06:27:49.004Z,58.84
2019-04-06T06:30:18.663Z,58.78
2019-04-06T06:32:48.267Z,57.96
2019-04-06T06:35:17.729Z,58.34
2019-04-06T06:37:47.258Z,57.98
2019-04-06T06:40:16.759Z,57.89
2019-04-06T06:42:46.168Z,57.55
2019-04-06T06:45:15.835Z,57.14
2019-04-06T06:47:45.406Z,56.92
2019-04-06T06:50:14.801Z,57.42
2019-04-06T06:52:44.236Z,56.99
2019-04-06T06:55:13.693Z,56.63
2019-04-06T06:57:43.119Z,56.96
2019-04-06T07:00:12.778Z,56.05
2019-04-06T07:02:42.302Z,55.75
2019-04-06T07:05:11.753Z,56.09
2019-04-06T07:07:41.298Z,56.06
2019-04-06T07:10:11.047Z,55.30
2019-04-06T07:12:40.458Z,55.38
2019-04-06T07:15:09.883Z,54.80
2019-04-06T07:17:39.333Z,55.04
2019-04-06T07:20:08.753Z,54.16
2019-04-06T07:22:38.231Z,54.60
2019-04-06T07:25:08.260Z,54.29
2019-04-06T07:27:38.035Z,54.18
2019-04-06T07:30:08.114Z,53.66
2019-04-06T07:32:37.565Z,54.52
2019-04-06T07:35:06.989Z,53.86
2019-04-06T07:37:36.601Z,53.27
2019-04-06T07:40:07.218Z,53.96
2019-04-06T07:42:37.215Z,53.17
2019-04-06T07:45:06.985Z,52.53
2019-04-06T07:47:36.429Z,51.72
2019-04-06T07:50:06.805Z,51.47
2019-04-06T07:52:36.384Z,51.03
2019-04-06T07:55:08.141Z,51.19
2019-04-06T07:57:37.553Z,50.91
2019-04-06T08:00:07.565Z,50.27
2019-04-06T08:02:37.210Z,50.50
2019-04-06T08:05:07.305Z,49.63
2019-04-06T08:07:37.227Z,49.93
2019-04-06T08:10:06.720Z,49.66
2019-04-06T08:12:36.522Z,48.90
2019-04-06T08:15:06.731Z,48.82
2019-04-06T08:17:36.454Z,48.04
2019-04-06T08:20:08.562Z,47.82
2019-04-06T08:22:37.987Z,47.07
2019-04-06T08:25:08.082Z,47.25
2019-04-06T08:27:37.702Z,46.94
2019-04-06T08:30:09.346Z,46.95
2019-04-06T08:32:39.365Z,46.17
2019-04-06T08:35:09.205Z,45.66
2019-04-06T08:37:38.892Z,45.34
2019-04-06T08:40:08.363Z,44.01
2019-04-06T08:42:37.818Z,43.73
2019-04-06T08:45:07.310Z,44.23
2019-04-06T08:47:37.198Z,43.18
2019-04-06T08:50:07.595Z,42.88
2019-04-06T08:52:37.046Z,42.49
2019-04-06T08:55:07.198Z,41.88
2019-04-06T08:57:36.879Z,42.22
2019-04-06T09:00:07.934Z,40.98
2019-04-06T09:02:37.909Z,40.91
2019-04-06T09:05:07.790Z,40.32
2019-04-06T09:07:40.465Z,40.55
2019-04-06T09:10:09.410Z,39.69
2019-04-06T09:12:39.069Z,39.46
2019-04-06T09:15:10.004Z,38.86
2019-04-06T09:17:39.670Z,39.40
2019-04-06T09:20:09.878Z,38.44
2019-04-06T09:22:39.573Z,38.01
2019-04-06T09:25:09.261Z,38.01
2019-04-06T09:27:39.232Z,37.37
2019-04-06T09:30:09.207Z,36.47
2019-04-06T09:32:39.121Z,35.56
2019-04-06T09:35:09.166Z,34.98
2019-04-06T09:37:40.123Z,32.72
2019-04-06T09:40:10.425Z,32.87
2019-04-06T09:42:40.080Z,32.82
2019-04-06T09:45:26.848Z,32.21
2019-04-06T09:48:01.328Z,31.17
2019-04-06T09:50:49.361Z,30.83
2019-04-06T09:53:26.396Z,29.67
2019-04-06T09:56:00.655Z,29.19
2019-04-06T09:58:47.049Z,28.63
2019-04-06T10:01:38.911Z,28.48
2019-04-06T10:04:20.958Z,29.11
2019-04-06T10:06:58.172Z,27.88
2019-04-06T10:09:38.382Z,27.11
2019-04-06T10:12:15.662Z,26.15
2019-04-06T10:14:56.016Z,26.15
2019-04-06T10:17:27.289Z,26.34
2019-04-06T10:19:58.727Z,25.96
2019-04-06T10:22:33.070Z,26.04
2019-04-06T10:25:16.457Z,26.54
2019-04-06T10:27:48.564Z,26.20
2019-04-06T10:30:35.872Z,27.33
2019-04-06T10:33:23.033Z,27.94
2019-04-06T10:35:54.334Z,28.10
2019-04-06T10:38:25.826Z,26.87
2019-04-06T10:41:08.966Z,25.74
2019-04-06T10:43:40.202Z,25.45
2019-04-06T10:46:20.367Z,24.53
2019-04-06T10:48:54.287Z,25.56
2019-04-06T10:51:31.634Z,24.68
2019-04-06T10:54:08.998Z,24.50
2019-04-06T10:56:40.297Z,24.90
2019-04-06T10:59:23.388Z,23.46
2019-04-06T11:01:54.701Z,23.00
2019-04-06T11:04:31.823Z,22.79
2019-04-06T11:07:06.011Z,23.21
2019-04-06T11:09:40.930Z,21.99
2019-04-06T11:12:18.056Z,21.24
2019-04-06T11:14:55.071Z,21.81
2019-04-06T11:17:41.266Z,22.39
2019-04-06T11:20:21.326Z,22.83
2019-04-06T11:23:07.912Z,22.92
2019-04-06T11:25:48.134Z,21.64
2019-04-06T11:28:19.444Z,21.97
2019-04-06T11:31:07.616Z,22.39
2019-04-06T11:33:41.749Z,22.77
2019-04-06T11:36:13.015Z,22.04
2019-04-06T11:38:44.313Z,22.56
2019-04-06T11:41:21.599Z,21.75
2019-04-06T11:44:08.841Z,22.58
2019-04-06T11:46:43.363Z,22.06
2019-04-06T11:49:20.414Z,21.72
2019-04-06T11:51:54.344Z,21.30
2019-04-06T11:54:25.641Z,21.19
2019-04-06T11:56:56.910Z,20.72
2019-04-06T11:59:34.292Z,20.76
2019-04-06T12:02:21.803Z,21.17
2019-04-06T12:05:05.551Z,21.26
2019-04-06T12:07:45.480Z,20.45
2019-04-06T12:10:25.583Z,20.41
2019-04-06T12:12:59.566Z,20.05
2019-04-06T12:15:30.844Z,20.28
2019-04-06T12:18:05.071Z,20.04
2019-04-06T12:20:36.383Z,19.64
2019-04-06T12:23:23.010Z,19.58
2019-04-06T12:25:54.298Z,19.85
2019-04-06T12:28:28.726Z,19.62
2019-04-06T12:31:00.077Z,19.15
2019-04-06T12:33:47.795Z,19.46
2019-04-06T12:36:19.054Z,19.79
2019-04-06T12:38:53.262Z,19.36
2019-04-06T12:41:24.852Z,19.49
2019-04-06T12:44:12.294Z,19.83
2019-04-06T12:47:01.947Z,20.11
2019-04-06T12:49:36.094Z,19.89
2019-04-06T12:52:23.723Z,20.19
2019-04-06T12:54:55.027Z,20.36
2019-04-06T12:57:26.339Z,20.22
2019-04-06T13:00:13.874Z,20.83
2019-04-06T13:02:57.558Z,20.96
2019-04-06T13:05:31.563Z,21.13
2019-04-06T13:08:05.831Z,21.33
2019-04-06T13:10:51.935Z,21.61
2019-04-06T13:13:39.146Z,21.61
2019-04-06T13:16:16.822Z,22.30
2019-04-06T13:18:50.823Z,23.33
2019-04-06T13:21:31.163Z,23.58
2019-04-06T13:24:08.368Z,24.53
2019-04-06T13:26:55.550Z,25.90
2019-04-06T13:29:26.850Z,25.90
2019-04-06T13:32:01.060Z,26.48
2019-04-06T13:34:44.322Z,26.82
2019-04-06T13:37:24.763Z,27.46
2019-04-06T13:40:02.257Z,27.49
2019-04-06T13:42:33.668Z,26.97
2019-04-06T13:45:11.621Z,26.79
2019-04-06T13:47:57.971Z,26.17
2019-04-06T13:50:29.602Z,25.97
2019-04-06T13:53:01.644Z,25.54
2019-04-06T13:55:41.960Z,25.00
2019-04-06T13:58:13.207Z,25.21
2019-04-06T14:00:50.825Z,25.97
2019-04-06T14:03:28.153Z,26.60
2019-04-06T14:06:08.352Z,26.76
2019-04-06T14:08:39.767Z,26.93
2019-04-06T14:11:13.751Z,27.11
2019-04-06T14:13:45.021Z,27.17
2019-04-06T14:16:24.968Z,27.98
2019-04-06T14:19:11.204Z,28.20
2019-04-06T14:21:48.646Z,28.12
2019-04-06T14:24:19.874Z,28.65
2019-04-06T14:27:07.524Z,28.71
2019-04-06T14:29:47.922Z,28.57
2019-04-06T14:32:19.325Z,28.83
2019-04-06T14:34:50.625Z,28.85
2019-04-06T14:37:21.929Z,29.30
2019-04-06T14:40:09.357Z,29.36
2019-04-06T14:42:43.067Z,29.31
2019-04-06T14:45:14.615Z,29.31
2019-04-06T14:47:48.873Z,30.02
2019-04-06T14:50:28.926Z,29.69
2019-04-06T14:53:08.602Z,29.01
2019-04-06T14:55:42.764Z,29.33
2019-04-06T14:58:25.943Z,29.36
2019-04-06T15:01:00.111Z,29.18
2019-04-06T15:03:47.130Z,28.44
2019-04-06T15:06:21.660Z,28.10
2019-04-06T15:09:07.709Z,26.98
2019-04-06T15:11:38.976Z,26.86
2019-04-06T15:14:22.322Z,26.98
2019-04-06T15:16:59.343Z,26.73
2019-04-06T15:19:30.644Z,27.60
2019-04-06T15:22:18.288Z,28.10
2019-04-06T15:24:52.454Z,28.38
2019-04-06T15:27:29.437Z,28.69
2019-04-06T15:30:03.423Z,29.03
2019-04-06T15:32:51.021Z,29.40
2019-04-06T15:35:22.304Z,29.96
2019-04-06T15:37:59.631Z,30.11
2019-04-06T15:40:36.655Z,30.74
2019-04-06T15:43:10.410Z,30.91
2019-04-06T15:45:50.502Z,31.38
2019-04-06T15:48:36.112Z,31.88
2019-04-06T15:51:00.759Z,31.98
2019-04-06T15:53:34.708Z,32.74
2019-04-06T15:56:22.240Z,32.45
2019-04-06T15:58:53.546Z,32.96
2019-04-06T16:01:24.813Z,32.50
2019-04-06T16:04:12.270Z,32.87
2019-04-06T16:06:59.220Z,33.02
2019-04-06T16:09:41.613Z,32.86
2019-04-06T16:12:30.530Z,33.54
2019-04-06T16:15:04.529Z,33.56
2019-04-06T16:17:38.246Z,33.60
2019-04-06T16:20:09.763Z,34.03
2019-04-06T16:22:56.900Z,34.08
2019-04-06T16:25:31.140Z,34.37
2019-04-06T16:28:02.416Z,34.62
2019-04-06T16:30:33.720Z,35.05
2019-04-06T16:33:19.787Z,35.42
2019-04-06T16:35:53.816Z,35.64
2019-04-06T16:38:31.015Z,35.63
2019-04-06T16:41:08.648Z,35.66
2019-04-06T16:43:54.973Z,35.88
2019-04-06T16:46:42.583Z,35.90
2019-04-06T16:49:22.895Z,36.42
2019-04-06T16:52:03.380Z,36.32
2019-04-06T16:54:43.611Z,37.08
2019-04-06T16:57:20.802Z,37.08
2019-04-06T16:59:52.338Z,37.36
2019-04-06T17:02:39.724Z,38.00
2019-04-06T17:05:17.060Z,37.81
2019-04-06T17:07:51.472Z,38.57
2019-04-06T17:10:22.682Z,38.52
2019-04-06T17:12:56.414Z,38.73
2019-04-06T17:15:30.682Z,39.11
2019-04-06T17:18:19.818Z,39.08
2019-04-06T17:20:54.187Z,39.56
2019-04-06T17:23:34.185Z,40.09
2019-04-06T17:26:11.539Z,39.82
2019-04-06T17:28:49.153Z,40.07
2019-04-06T17:31:23.411Z,40.30
2019-04-06T17:34:10.872Z,40.68
2019-04-06T17:37:00.584Z,40.70
2019-04-06T17:39:34.551Z,41.08
2019-04-06T17:42:12.126Z,41.13
2019-04-06T17:44:49.200Z,41.50
2019-04-06T17:47:32.854Z,41.53
2019-04-06T17:50:09.815Z,41.74
2019-04-06T17:52:53.354Z,41.95
2019-04-06T17:55:24.757Z,42.30
2019-04-06T17:58:12.032Z,42.27
2019-04-06T18:00:50.337Z,42.98
2019-04-06T18:03:24.357Z,43.14
2019-04-06T18:05:58.089Z,42.96
2019-04-06T18:08:44.115Z,43.33
2019-04-06T18:11:27.145Z,43.26
2019-04-06T18:13:59.771Z,43.56
2019-04-06T18:16:31.270Z,43.73
2019-04-06T18:19:00.996Z,43.89
2019-04-06T18:21:31.136Z,43.79
2019-04-06T18:24:00.971Z,43.97
2019-04-06T18:26:30.599Z,44.29
2019-04-06T18:29:00.640Z,44.21
2019-04-06T18:31:37.703Z,44.38
2019-04-06T18:34:08.113Z,44.38
2019-04-06T18:36:55.071Z,44.46
2019-04-06T18:39:26.518Z,44.70
2019-04-06T18:41:56.403Z,44.71
2019-04-06T18:44:26.272Z,44.90
2019-04-06T18:46:56.616Z,45.01
2019-04-06T18:49:26.352Z,45.09
2019-04-06T18:51:56.082Z,45.46
2019-04-06T18:54:25.730Z,45.43
2019-04-06T18:56:55.786Z,45.47
2019-04-06T18:59:25.411Z,46.14
2019-04-06T19:01:55.148Z,45.53
2019-04-06T19:04:24.785Z,45.84
2019-04-06T19:06:54.554Z,46.22
2019-04-06T19:09:25.510Z,46.98
2019-04-06T19:11:57.057Z,47.23
2019-04-06T19:14:26.972Z,46.83
2019-04-06T19:16:57.044Z,47.06
2019-04-06T19:19:26.720Z,47.05
2019-04-06T19:21:57.152Z,47.12
2019-04-06T19:24:27.300Z,47.18
2019-04-06T19:26:56.935Z,47.45
2019-04-06T19:29:26.710Z,47.85
2019-04-06T19:31:58.101Z,47.42
2019-04-06T19:34:28.164Z,47.59
2019-04-06T19:36:57.958Z,47.42
2019-04-06T19:39:27.591Z,47.22
2019-04-06T19:41:57.420Z,47.49
2019-04-06T19:44:27.246Z,48.00
2019-04-06T19:46:56.922Z,48.18
2019-04-06T19:49:26.753Z,48.30
2019-04-06T19:51:57.084Z,48.34
2019-04-06T19:54:26.881Z,48.31
2019-04-06T19:56:56.965Z,48.97
2019-04-06T19:59:26.690Z,48.61
2019-04-06T20:01:56.299Z,48.97
2019-04-06T20:04:26.103Z,49.34
2019-04-06T20:06:55.883Z,49.14
2019-04-06T20:09:25.527Z,49.40
2019-04-06T20:12:04.290Z,49.68
2019-04-06T20:14:26.596Z,49.79
2019-04-06T20:16:56.465Z,49.95
2019-04-06T20:19:26.385Z,49.49
2019-04-06T20:21:56.018Z,49.61
2019-04-06T20:24:25.776Z,49.55
2019-04-06T20:26:56.136Z,50.20
2019-04-06T20:29:25.718Z,50.09
2019-04-06T20:31:55.392Z,50.00
2019-04-06T20:34:25.479Z,50.32
2019-04-06T20:36:55.274Z,50.42
2019-04-06T20:39:24.964Z,50.61
2019-04-06T20:41:54.714Z,50.61
2019-04-06T20:44:24.392Z,50.69
2019-04-06T20:46:54.542Z,51.22
2019-04-06T20:49:24.723Z,51.68
2019-04-06T20:51:54.375Z,51.90
2019-04-06T20:54:24.565Z,51.68
2019-04-06T20:56:57.990Z,52.00
2019-04-06T20:59:25.690Z,51.77
2019-04-06T21:01:55.288Z,51.86
2019-04-06T21:04:24.936Z,51.68
2019-04-06T21:06:54.965Z,51.37
2019-04-06T21:09:24.619Z,51.71
2019-04-06T21:11:54.655Z,51.68
2019-04-06T21:14:24.309Z,52.30
2019-04-06T21:16:54.607Z,52.44
2019-04-06T21:19:24.830Z,53.00
2019-04-06T21:21:54.668Z,52.94
2019-04-06T21:24:24.245Z,52.63
2019-04-06T21:26:54.387Z,52.86
2019-04-06T21:29:24.350Z,53.40
2019-04-06T21:31:53.982Z,52.88
2019-04-06T21:34:23.753Z,53.86
2019-04-06T21:36:53.717Z,53.91
2019-04-06T21:39:23.370Z,54.63
2019-04-06T21:41:53.121Z,54.79
2019-04-06T21:44:23.014Z,54.58
2019-04-06T21:46:52.685Z,55.13
2019-04-06T21:49:22.318Z,54.95
2019-04-06T21:51:51.974Z,55.04
2019-04-06T21:54:21.603Z,55.75
2019-04-06T21:56:51.803Z,55.31
2019-04-06T21:59:21.478Z,55.35
2019-04-06T22:01:51.407Z,55.12
2019-04-06T22:04:25.335Z,55.03
2019-04-06T22:06:52.802Z,55.15
2019-04-06T22:09:22.398Z,55.16
2019-04-06T22:11:52.454Z,55.04
2019-04-06T22:14:22.829Z,55.55
2019-04-06T22:16:52.529Z,55.52
2019-04-06T22:19:22.520Z,56.08
2019-04-06T22:21:52.203Z,55.95
2019-04-06T22:24:21.838Z,55.91
2019-04-06T22:26:51.946Z,56.60
2019-04-06T22:29:22.213Z,56.14
2019-04-06T22:31:51.866Z,56.43
2019-04-06T22:34:21.790Z,56.40
2019-04-06T22:36:51.584Z,56.51
2019-04-06T22:39:21.507Z,56.52
2019-04-06T22:41:51.209Z,56.71
2019-04-06T22:44:21.049Z,56.66
2019-04-06T22:46:51.414Z,56.75
2019-04-06T22:49:21.468Z,57.00
2019-04-06T22:51:51.599Z,57.56
2019-04-06T22:54:21.399Z,58.02
2019-04-06T22:56:51.096Z,58.07
2019-04-06T22:59:20.732Z,57.77
2019-04-06T23:01:50.503Z,57.85
2019-04-06T23:04:24.446Z,57.76
2019-04-06T23:06:58.156Z,57.74
2019-04-06T23:09:27.959Z,57.64
2019-04-06T23:11:57.644Z,57.90
2019-04-06T23:14:27.358Z,57.67
2019-04-06T23:16:56.948Z,58.21
2019-04-06T23:19:27.105Z,58.35
2019-04-06T23:21:56.727Z,58.28
2019-04-06T23:24:26.394Z,59.08
2019-04-06T23:26:56.754Z,58.83
2019-04-06T23:29:26.893Z,58.43
2019-04-06T23:31:56.574Z,58.75
2019-04-06T23:34:26.347Z,58.30
2019-04-06T23:36:56.834Z,58.75
2019-04-06T23:39:26.946Z,58.72
2019-04-06T23:41:56.612Z,58.65
2019-04-06T23:44:26.270Z,58.57
2019-04-06T23:46:56.446Z,58.88
2019-04-06T23:49:27.586Z,58.79
2019-04-06T23:51:57.757Z,59.03
2019-04-06T23:54:27.403Z,59.00
2019-04-06T23:56:57.035Z,59.58
2019-04-06T23:59:27.145Z,59.38
